createdAt,value
2023-05-21T00:00:12.605Z,15.53
2023-05-21T00:10:34.388Z,15.30
2023-05-21T00:20:56.235Z,15.02
2023-05-21T00:31:19.198Z,15.04
2023-05-21T00:41:43.044Z,15.11
2023-05-21T00:52:05.522Z,14.71
2023-05-21T01:02:27.463Z,14.45
2023-05-21T01:12:50.956Z,14.59
2023-05-21T01:23:13.338Z,14.39
2023-05-21T01:33:45.447Z,14.50
2023-05-21T01:44:09.142Z,14.47
2023-05-21T01:54:30.988Z,14.36
2023-05-21T02:04:52.817Z,14.25
2023-05-21T02:15:14.808Z,14.28
2023-05-21T02:25:37.117Z,14.14
2023-05-21T02:35:59.081Z,13.93
2023-05-21T02:46:21.078Z,13.99
2023-05-21T02:56:43.030Z,14.08
2023-05-21T03:07:05.704Z,13.79
2023-05-21T03:17:27.468Z,13.62
2023-05-21T03:27:49.361Z,13.77
2023-05-21T03:38:11.194Z,13.75
2023-05-21T03:48:32.977Z,13.49
2023-05-21T03:58:54.794Z,13.69
2023-05-21T04:09:16.879Z,13.56
2023-05-21T04:19:38.932Z,13.52
2023-05-21T04:30:00.871Z,13.61
2023-05-21T04:40:24.644Z,13.56
2023-05-21T04:50:46.773Z,13.58
2023-05-21T05:01:09.083Z,13.66
2023-05-21T05:11:31.072Z,13.70
2023-05-21T05:21:52.958Z,13.73
2023-05-21T05:32:14.874Z,14.10
2023-05-21T05:42:36.775Z,14.15
2023-05-21T05:52:58.690Z,14.34
2023-05-21T06:03:20.625Z,14.44
2023-05-21T06:13:22.218Z,14.64
2023-05-21T06:23:23.732Z,14.85
2023-05-21T06:33:27.278Z,15.08
2023-05-21T06:43:28.924Z,15.28
2023-05-21T06:53:30.420Z,15.53
2023-05-21T07:03:32.244Z,15.81
2023-05-21T07:13:35.796Z,16.22
2023-05-21T07:31:08.427Z,16.67
2023-05-21T07:41:28.493Z,17.04
2023-05-21T07:52:08.613Z,17.50
2023-05-21T08:02:49.646Z,18.21
2023-05-21T08:13:30.302Z,18.50
2023-05-21T08:24:10.628Z,18.71
2023-05-21T08:34:53.232Z,19.15
2023-05-21T08:45:40.562Z,19.38
2023-05-21T08:56:21.404Z,19.64
2023-05-21T09:07:03.215Z,19.77
2023-05-21T09:17:48.150Z,20.22
2023-05-21T09:28:29.553Z,20.47
2023-05-21T09:39:16.296Z,20.69
2023-05-21T09:50:03.415Z,20.84
2023-05-21T10:00:45.632Z,20.92
2023-05-21T10:11:27.474Z,20.81
2023-05-21T10:22:09.307Z,21.04
2023-05-21T10:32:50.377Z,21.11
2023-05-21T10:44:02.486Z,21.28
2023-05-21T10:54:48.748Z,21.33
2023-05-21T11:05:09.156Z,21.47
2023-05-21T11:15:29.695Z,21.55
2023-05-21T11:26:02.267Z,21.62
2023-05-21T11:36:22.819Z,21.66
2023-05-21T11:46:43.565Z,21.68
2023-05-21T11:57:07.987Z,21.92
2023-05-21T12:07:31.639Z,21.82
2023-05-21T12:17:53.288Z,22.17
2023-05-21T12:28:13.818Z,22.41
2023-05-21T12:38:34.596Z,22.22
2023-05-21T12:48:58.196Z,22.38
2023-05-21T12:59:18.376Z,22.55
2023-05-21T13:09:38.620Z,22.61
2023-05-21T13:20:20.575Z,22.79
2023-05-21T13:30:40.963Z,23.04
2023-05-21T13:41:21.562Z,23.09
2023-05-21T13:51:42.178Z,23.18
2023-05-21T14:02:02.428Z,23.30
2023-05-21T14:12:22.821Z,23.31
2023-05-21T14:22:43.360Z,23.33
2023-05-21T14:33:03.593Z,23.38
2023-05-21T14:43:24.058Z,23.64
2023-05-21T14:53:44.024Z,23.54
2023-05-21T15:04:24.530Z,23.79
2023-05-21T15:15:06.323Z,23.66
2023-05-21T15:25:26.389Z,23.63
2023-05-21T15:35:46.736Z,23.78
2023-05-21T15:46:07.348Z,23.74
2023-05-21T15:56:27.887Z,23.81
2023-05-21T16:06:48.585Z,23.75
2023-05-21T16:17:09.058Z,23.81
2023-05-21T16:27:29.758Z,23.81
2023-05-21T16:37:53.377Z,23.86
2023-05-21T16:48:35.525Z,23.81
2023-05-21T16:58:57.387Z,24.06
2023-05-21T17:09:18.827Z,24.03
2023-05-21T17:19:39.429Z,24.13
2023-05-21T17:29:59.772Z,24.04
2023-05-21T17:40:20.378Z,23.92
2023-05-21T17:51:01.092Z,24.03
2023-05-21T18:01:41.728Z,23.81
2023-05-21T18:12:22.565Z,23.75
2023-05-21T18:33:43.398Z,23.67
2023-05-21T18:44:24.323Z,23.59
2023-05-21T18:55:06.632Z,23.50
2023-05-21T19:05:47.285Z,23.31
2023-05-21T19:16:27.627Z,23.19
2023-05-21T19:27:08.258Z,22.93
2023-05-21T19:37:48.666Z,22.92
2023-05-21T19:48:29.456Z,22.75
2023-05-21T19:59:11.480Z,22.70
2023-05-21T20:09:52.340Z,22.62
2023-05-21T20:20:34.552Z,22.50
2023-05-21T20:31:15.177Z,22.36
2023-05-21T20:41:56.198Z,22.27
2023-05-21T20:52:36.811Z,22.12
2023-05-21T21:03:18.440Z,22.05
2023-05-21T21:13:59.369Z,21.92
2023-05-21T21:24:40.035Z,21.79
2023-05-21T21:35:20.888Z,21.31
2023-05-21T21:46:01.458Z,20.85
2023-05-21T21:56:42.469Z,20.60
2023-05-21T22:07:23.677Z,20.39
2023-05-21T22:18:04.903Z,20.38
2023-05-21T22:28:45.056Z,19.93
2023-05-21T22:39:25.743Z,19.99
2023-05-21T22:50:08.112Z,20.05
2023-05-21T23:00:48.577Z,20.13
2023-05-21T23:11:29.368Z,19.93
2023-05-21T23:22:09.830Z,19.70
2023-05-21T23:32:50.851Z,19.53
2023-05-21T23:43:31.607Z,19.47
2023-05-21T23:54:12.128Z,19.55
